createdAt,value
2019-05-19T00:00:20.271Z,11.02
2019-05-19T00:02:03.564Z,10.96
2019-05-19T00:03:41.901Z,10.91
2019-05-19T00:05:18.815Z,10.83
2019-05-19T00:06:53.905Z,10.76
2019-05-19T00:08:30.073Z,10.77
2019-05-19T00:10:05.762Z,10.81
2019-05-19T00:11:42.326Z,10.84
2019-05-19T00:13:18.964Z,10.76
2019-05-19T00:14:54.607Z,10.75
2019-05-19T00:16:30.239Z,10.70
2019-05-19T00:18:06.953Z,10.59
2019-05-19T00:19:42.434Z,10.52
2019-05-19T00:21:28.053Z,10.52
2019-05-19T00:23:05.221Z,10.53
2019-05-19T00:24:41.685Z,10.55
2019-05-19T00:26:17.533Z,10.58
2019-05-19T00:27:52.769Z,10.57
2019-05-19T00:29:28.647Z,10.54
2019-05-19T00:31:04.955Z,10.43
2019-05-19T00:32:42.963Z,10.42
2019-05-19T00:34:33.847Z,10.41
2019-05-19T00:36:12.906Z,10.37
2019-05-19T00:37:48.342Z,10.40
2019-05-19T00:39:24.765Z,10.39
2019-05-19T00:41:02.236Z,10.30
2019-05-19T00:42:38.880Z,10.32
2019-05-19T00:44:15.406Z,10.31
2019-05-19T00:45:51.898Z,10.27
2019-05-19T00:47:27.200Z,10.18
2019-05-19T00:49:05.960Z,10.06
2019-05-19T00:50:42.262Z,9.99
2019-05-19T00:52:18.643Z,10.05
2019-05-19T00:53:55.987Z,10.05
2019-05-19T00:55:32.083Z,10.11
2019-05-19T00:57:07.672Z,10.13
2019-05-19T00:58:44.170Z,10.06
2019-05-19T01:00:19.683Z,10.02
2019-05-19T01:01:59.191Z,9.93
2019-05-19T01:03:36.279Z,9.84
2019-05-19T01:05:12.626Z,9.83
2019-05-19T01:06:48.349Z,9.79
2019-05-19T01:08:24.105Z,9.72
2019-05-19T01:09:59.557Z,9.65
2019-05-19T01:11:36.680Z,9.62
2019-05-19T01:13:14.313Z,9.56
2019-05-19T01:15:10.976Z,9.56
2019-05-19T01:16:48.634Z,9.57
2019-05-19T01:18:27.008Z,9.50
2019-05-19T01:20:04.142Z,9.50
2019-05-19T01:22:04.086Z,9.56
2019-05-19T01:23:42.544Z,9.49
2019-05-19T01:25:18.393Z,9.59
2019-05-19T01:26:54.436Z,9.55
2019-05-19T01:28:34.947Z,9.53
2019-05-19T01:30:10.407Z,9.51
2019-05-19T01:31:46.617Z,9.48
2019-05-19T01:33:24.037Z,9.42
2019-05-19T01:35:01.057Z,9.47
2019-05-19T01:36:36.573Z,9.44
2019-05-19T01:38:12.712Z,9.45
2019-05-19T01:39:49.721Z,9.42
2019-05-19T01:41:25.630Z,9.39
2019-05-19T01:43:02.876Z,9.41
2019-05-19T01:44:38.563Z,9.40
2019-05-19T01:46:13.879Z,9.38
2019-05-19T01:47:50.567Z,9.30
2019-05-19T01:49:29.671Z,9.25
2019-05-19T01:51:23.282Z,9.21
2019-05-19T01:53:04.210Z,9.18
2019-05-19T01:54:40.100Z,9.13
2019-05-19T01:56:18.589Z,9.09
2019-05-19T01:57:54.330Z,9.04
2019-05-19T01:59:29.826Z,9.03
2019-05-19T02:01:08.889Z,9.08
2019-05-19T02:02:43.955Z,9.15
2019-05-19T02:04:29.901Z,9.20
2019-05-19T02:06:07.595Z,9.32
2019-05-19T02:07:43.341Z,9.27
2019-05-19T02:09:21.823Z,9.27
2019-05-19T02:11:00.818Z,9.31
2019-05-19T02:12:36.709Z,9.22
2019-05-19T02:14:18.157Z,9.14
2019-05-19T02:16:00.370Z,9.05
2019-05-19T02:17:36.625Z,9.03
2019-05-19T02:19:15.882Z,8.97
2019-05-19T02:20:51.698Z,8.96
2019-05-19T02:22:27.150Z,8.91
2019-05-19T02:24:03.132Z,8.92
2019-05-19T02:25:38.991Z,8.91
2019-05-19T02:27:15.421Z,8.89
2019-05-19T02:28:50.777Z,8.87
2019-05-19T02:30:29.128Z,8.84
2019-05-19T02:32:04.415Z,8.82
2019-05-19T02:33:40.553Z,8.80
2019-05-19T02:35:15.621Z,8.80
2019-05-19T02:36:51.440Z,8.79
2019-05-19T02:38:28.639Z,8.74
2019-05-19T02:40:04.377Z,8.72
2019-05-19T02:41:39.653Z,8.76
2019-05-19T02:43:17.591Z,8.74
2019-05-19T02:44:53.979Z,8.70
2019-05-19T02:46:33.169Z,8.69
2019-05-19T02:48:08.339Z,8.79
2019-05-19T02:49:44.432Z,8.78
2019-05-19T02:51:19.568Z,8.79
2019-05-19T02:52:55.520Z,8.73
2019-05-19T02:54:31.161Z,8.76
2019-05-19T02:56:07.018Z,8.76
2019-05-19T02:57:42.822Z,8.79
2019-05-19T02:59:18.424Z,8.83
2019-05-19T03:00:53.688Z,8.78
2019-05-19T03:02:31.844Z,8.79
2019-05-19T03:04:07.504Z,8.77
2019-05-19T03:05:43.169Z,8.83
2019-05-19T03:07:18.295Z,8.81
2019-05-19T03:08:53.939Z,8.69
2019-05-19T03:10:29.351Z,8.62
2019-05-19T03:12:05.425Z,8.63
2019-05-19T03:13:40.550Z,8.60
2019-05-19T03:15:17.079Z,8.56
2019-05-19T03:16:52.259Z,8.52
2019-05-19T03:18:28.011Z,8.49
2019-05-19T03:20:05.703Z,8.47
2019-05-19T03:21:41.420Z,8.43
2019-05-19T03:23:18.852Z,8.48
2019-05-19T03:24:57.975Z,8.48
2019-05-19T03:26:33.477Z,8.44
2019-05-19T03:28:09.139Z,8.46
2019-05-19T03:29:49.350Z,8.48
2019-05-19T03:31:34.183Z,8.52
2019-05-19T03:33:09.816Z,8.48
2019-05-19T03:34:47.051Z,8.39
2019-05-19T03:38:55.939Z,8.37
2019-05-19T03:40:32.221Z,8.36
2019-05-19T03:42:10.766Z,8.37
2019-05-19T03:43:46.951Z,8.35
2019-05-19T03:45:22.343Z,8.32
2019-05-19T03:46:59.388Z,8.30
2019-05-19T03:48:34.649Z,8.37
2019-05-19T03:50:10.678Z,8.37
2019-05-19T03:51:45.820Z,8.39
2019-05-19T03:53:28.245Z,8.48
2019-05-19T03:55:03.446Z,8.47
2019-05-19T03:56:39.162Z,8.54
2019-05-19T03:58:14.249Z,8.52
2019-05-19T03:59:55.172Z,8.49
2019-05-19T04:01:30.411Z,8.49
2019-05-19T04:03:06.586Z,8.50
2019-05-19T04:04:41.956Z,8.54
2019-05-19T04:06:19.731Z,8.57
2019-05-19T04:07:56.071Z,8.68
2019-05-19T04:09:32.202Z,8.71
2019-05-19T04:11:07.276Z,8.75
2019-05-19T04:12:47.808Z,8.71
2019-05-19T04:14:25.412Z,8.71
2019-05-19T04:16:05.205Z,8.74
2019-05-19T04:17:42.058Z,8.79
2019-05-19T04:19:20.275Z,8.81
2019-05-19T04:20:57.052Z,8.91
2019-05-19T04:22:32.364Z,9.04
2019-05-19T04:24:08.341Z,9.11
2019-05-19T04:25:43.651Z,9.17
2019-05-19T04:27:19.659Z,9.31
2019-05-19T04:28:55.579Z,9.37
2019-05-19T04:30:31.336Z,9.45
2019-05-19T04:32:06.953Z,9.53
2019-05-19T04:33:44.405Z,9.57
2019-05-19T04:35:19.568Z,9.60
2019-05-19T04:36:55.881Z,9.66
2019-05-19T04:38:31.288Z,9.66
2019-05-19T04:40:07.307Z,9.72
2019-05-19T04:41:42.486Z,9.78
2019-05-19T04:43:18.340Z,9.87
2019-05-19T04:44:53.470Z,9.97
2019-05-19T04:46:29.736Z,9.99
2019-05-19T04:48:09.191Z,10.11
2019-05-19T04:49:42.851Z,10.12
2019-05-19T04:51:19.312Z,10.14
2019-05-19T04:52:55.240Z,10.22
2019-05-19T04:54:33.198Z,10.25
2019-05-19T04:56:13.124Z,10.30
2019-05-19T04:57:48.657Z,10.40
2019-05-19T04:59:30.208Z,10.49
2019-05-19T05:01:05.409Z,10.60
2019-05-19T05:02:41.386Z,10.67
2019-05-19T05:04:18.849Z,10.78
2019-05-19T05:05:55.249Z,10.88
2019-05-19T05:07:30.489Z,10.97
2019-05-19T05:09:07.267Z,11.04
2019-05-19T05:10:45.086Z,11.15
2019-05-19T05:12:22.106Z,11.26
2019-05-19T05:13:57.236Z,11.36
2019-05-19T05:15:33.090Z,11.45
2019-05-19T05:17:08.403Z,11.59
2019-05-19T05:18:47.957Z,11.63
2019-05-19T05:20:23.156Z,11.66
2019-05-19T05:22:01.930Z,11.77
2019-05-19T05:23:37.060Z,11.78
2019-05-19T05:25:13.333Z,11.94
2019-05-19T05:26:48.896Z,12.03
2019-05-19T05:28:25.176Z,11.97
2019-05-19T05:30:04.451Z,12.07
2019-05-19T05:31:40.149Z,12.11
2019-05-19T05:33:17.148Z,12.09
2019-05-19T05:34:53.770Z,12.16
2019-05-19T05:36:31.187Z,12.24
2019-05-19T05:38:08.367Z,12.30
2019-05-19T05:39:44.070Z,12.51
2019-05-19T05:41:23.638Z,12.48
2019-05-19T05:42:58.825Z,12.58
2019-05-19T05:44:36.770Z,12.58
2019-05-19T05:46:13.225Z,12.82
2019-05-19T05:47:52.352Z,12.85
2019-05-19T05:49:39.969Z,13.10
2019-05-19T05:51:16.204Z,13.21
2019-05-19T05:52:57.571Z,13.24
2019-05-19T05:54:34.790Z,13.22
2019-05-19T05:56:13.512Z,13.41
2019-05-19T05:57:51.510Z,13.46
2019-05-19T05:59:34.201Z,13.59
2019-05-19T06:01:09.811Z,13.60
2019-05-19T06:02:48.533Z,13.66
2019-05-19T06:04:24.999Z,13.74
2019-05-19T06:06:02.878Z,13.70
2019-05-19T06:07:44.212Z,13.87
2019-05-19T06:09:23.157Z,13.88
2019-05-19T06:11:04.237Z,14.02
2019-05-19T06:12:43.157Z,14.02
2019-05-19T06:14:26.689Z,14.24
2019-05-19T06:16:05.201Z,14.29
2019-05-19T06:17:44.863Z,14.38
2019-05-19T06:19:23.699Z,14.45
2019-05-19T06:21:00.015Z,14.56
2019-05-19T06:22:55.084Z,14.66
2019-05-19T06:24:23.341Z,14.77
2019-05-19T06:26:11.096Z,14.81
2019-05-19T06:27:47.660Z,14.89
2019-05-19T06:29:25.576Z,15.01
2019-05-19T06:31:01.846Z,15.17
2019-05-19T06:32:47.259Z,15.25
2019-05-19T06:34:22.863Z,15.51
2019-05-19T06:35:59.913Z,15.70
2019-05-19T06:37:35.940Z,15.83
2019-05-19T06:39:11.813Z,16.12
2019-05-19T06:40:49.315Z,16.32
2019-05-19T06:42:30.343Z,16.60
2019-05-19T06:44:07.505Z,17.22
2019-05-19T06:45:46.228Z,17.70
2019-05-19T06:47:23.602Z,17.98
2019-05-19T06:48:58.824Z,18.56
2019-05-19T06:51:26.806Z,18.76
2019-05-19T06:53:14.192Z,18.77
2019-05-19T06:54:41.202Z,19.08
2019-05-19T06:56:16.417Z,19.31
2019-05-19T06:57:53.908Z,19.43
2019-05-19T06:59:31.011Z,19.54
2019-05-19T07:01:11.599Z,19.60
2019-05-19T07:02:47.355Z,19.41
2019-05-19T07:04:22.467Z,19.71
2019-05-19T07:06:00.375Z,19.27
2019-05-19T07:07:35.687Z,19.26
2019-05-19T07:09:11.523Z,19.54
2019-05-19T07:10:50.157Z,19.64
2019-05-19T07:12:28.716Z,19.93
2019-05-19T07:14:05.967Z,20.14
2019-05-19T07:15:41.732Z,20.42
2019-05-19T07:17:21.555Z,20.43
2019-05-19T07:18:56.864Z,20.48
2019-05-19T07:20:39.583Z,20.38
2019-05-19T07:22:15.082Z,20.02
2019-05-19T07:23:51.108Z,19.52
2019-05-19T07:25:33.315Z,19.71
2019-05-19T07:27:12.376Z,19.96
2019-05-19T07:28:51.314Z,19.88
2019-05-19T07:30:27.046Z,19.77
2019-05-19T07:32:03.000Z,19.74
2019-05-19T07:33:42.381Z,19.60
2019-05-19T07:35:18.290Z,19.58
2019-05-19T07:36:58.633Z,19.82
2019-05-19T07:38:41.452Z,19.73
2019-05-19T07:40:18.815Z,20.16
2019-05-19T07:41:57.966Z,20.10
2019-05-19T07:43:35.581Z,20.24
2019-05-19T07:45:13.068Z,20.77
2019-05-19T07:46:50.859Z,21.05
2019-05-19T07:48:34.198Z,21.45
2019-05-19T07:50:20.443Z,21.70
2019-05-19T07:52:10.692Z,21.37
2019-05-19T07:53:48.318Z,20.91
2019-05-19T07:55:27.313Z,21.07
2019-05-19T07:57:05.881Z,21.39
2019-05-19T07:58:44.443Z,21.32
2019-05-19T08:00:28.544Z,21.09
2019-05-19T08:02:07.407Z,20.56
2019-05-19T08:03:44.944Z,20.43
2019-05-19T08:07:27.507Z,19.61
2019-05-19T08:09:08.068Z,19.95
2019-05-19T08:10:44.171Z,20.03
2019-05-19T08:12:20.310Z,19.98
2019-05-19T08:13:57.753Z,20.30
2019-05-19T08:15:37.673Z,20.28
2019-05-19T08:17:12.945Z,20.45
2019-05-19T08:18:49.586Z,20.47
2019-05-19T08:20:26.644Z,20.66
2019-05-19T08:22:02.812Z,20.29
2019-05-19T08:23:38.006Z,20.57
2019-05-19T08:25:13.852Z,20.80
2019-05-19T08:26:52.785Z,21.09
2019-05-19T08:28:35.517Z,21.32
2019-05-19T08:30:14.849Z,20.67
2019-05-19T08:31:53.052Z,20.63
2019-05-19T08:33:31.477Z,20.28
2019-05-19T08:35:07.436Z,20.60
2019-05-19T08:36:59.788Z,20.85
2019-05-19T08:38:35.604Z,21.06
2019-05-19T08:40:11.485Z,21.04
2019-05-19T08:41:50.268Z,21.29
2019-05-19T08:43:32.156Z,21.24
2019-05-19T08:45:08.930Z,21.02
2019-05-19T08:46:44.432Z,20.94
2019-05-19T08:48:22.764Z,20.96
2019-05-19T08:50:00.953Z,21.03
2019-05-19T08:51:40.131Z,20.96
2019-05-19T08:53:16.591Z,20.82
2019-05-19T08:54:52.704Z,20.68
2019-05-19T08:56:28.554Z,20.71
2019-05-19T08:58:06.164Z,20.75
2019-05-19T08:59:41.733Z,20.91
2019-05-19T09:01:19.346Z,21.10
2019-05-19T09:02:58.860Z,21.12
2019-05-19T09:04:39.923Z,21.10
2019-05-19T09:06:18.164Z,20.92
2019-05-19T09:07:59.949Z,21.72
2019-05-19T09:09:37.879Z,22.10
2019-05-19T09:11:19.737Z,22.06
2019-05-19T09:12:56.221Z,21.86
2019-05-19T09:14:34.170Z,21.56
2019-05-19T09:16:10.708Z,21.74
2019-05-19T09:17:48.924Z,21.77
2019-05-19T09:19:24.799Z,22.02
2019-05-19T09:21:00.112Z,22.78
2019-05-19T09:22:39.317Z,22.97
2019-05-19T09:24:29.289Z,23.53
2019-05-19T09:25:52.103Z,23.25
2019-05-19T09:27:30.425Z,23.10
2019-05-19T09:29:09.535Z,23.40
2019-05-19T09:30:47.099Z,23.83
2019-05-19T09:32:27.119Z,24.08
2019-05-19T09:34:10.455Z,24.20
2019-05-19T09:35:47.988Z,24.25
2019-05-19T09:37:25.271Z,23.98
2019-05-19T09:39:02.264Z,23.69
2019-05-19T09:40:42.848Z,23.57
2019-05-19T09:42:48.719Z,23.49
2019-05-19T09:44:35.244Z,23.48
2019-05-19T09:46:22.790Z,23.70
2019-05-19T09:47:59.482Z,23.81
2019-05-19T09:49:36.645Z,23.73
2019-05-19T09:51:16.658Z,23.32
2019-05-19T09:52:55.625Z,23.23
2019-05-19T09:54:44.185Z,23.55
2019-05-19T09:56:13.713Z,23.66
2019-05-19T09:57:51.167Z,23.07
2019-05-19T09:59:31.544Z,23.55
2019-05-19T10:01:08.870Z,24.20
2019-05-19T10:02:44.829Z,24.87
2019-05-19T10:04:37.094Z,25.02
2019-05-19T10:06:12.456Z,25.51
2019-05-19T10:07:50.306Z,25.89
2019-05-19T10:09:33.533Z,26.21
2019-05-19T10:11:48.304Z,25.87
2019-05-19T10:13:26.543Z,23.91
2019-05-19T10:15:04.213Z,22.55
2019-05-19T10:16:41.215Z,21.27
2019-05-19T10:18:16.828Z,20.93
2019-05-19T10:19:53.552Z,20.74
2019-05-19T10:21:31.411Z,20.56
2019-05-19T10:23:12.643Z,20.41
2019-05-19T10:25:18.174Z,20.43
2019-05-19T10:26:36.578Z,20.17
2019-05-19T10:28:18.037Z,20.19
2019-05-19T10:30:03.797Z,20.11
2019-05-19T10:31:46.596Z,19.89
2019-05-19T10:33:23.069Z,20.01
2019-05-19T10:35:01.059Z,20.27
2019-05-19T10:36:37.586Z,19.79
2019-05-19T10:38:13.743Z,19.37
2019-05-19T10:39:54.810Z,19.24
2019-05-19T10:41:33.291Z,19.28
2019-05-19T10:43:12.108Z,19.11
2019-05-19T10:44:48.090Z,19.15
2019-05-19T10:46:24.333Z,19.30
2019-05-19T10:48:02.299Z,19.22
2019-05-19T10:49:37.664Z,19.08
2019-05-19T10:51:13.682Z,19.28
2019-05-19T10:52:51.039Z,18.98
2019-05-19T10:54:28.812Z,19.00
2019-05-19T10:56:18.738Z,19.04
2019-05-19T10:57:54.269Z,18.69
2019-05-19T10:59:32.256Z,18.79
2019-05-19T11:01:08.152Z,18.63
2019-05-19T11:02:43.285Z,18.33
2019-05-19T11:04:34.092Z,18.14
2019-05-19T11:06:09.718Z,18.18
2019-05-19T11:07:46.790Z,18.19
2019-05-19T11:09:24.319Z,18.13
2019-05-19T11:11:03.959Z,18.11
2019-05-19T11:12:43.022Z,18.00
2019-05-19T11:14:20.532Z,17.93
2019-05-19T11:15:56.335Z,17.54
2019-05-19T11:17:36.113Z,17.06
2019-05-19T11:19:12.964Z,16.86
2019-05-19T11:20:51.462Z,16.59
2019-05-19T11:22:29.335Z,16.22
2019-05-19T11:24:17.968Z,15.83
2019-05-19T11:25:55.377Z,15.53
2019-05-19T11:27:30.758Z,15.22
2019-05-19T11:29:06.502Z,14.81
2019-05-19T11:30:43.337Z,14.29
2019-05-19T11:32:19.062Z,13.82
2019-05-19T11:33:57.453Z,13.42
2019-05-19T11:35:44.502Z,13.24
2019-05-19T11:37:21.586Z,13.08
2019-05-19T11:38:57.054Z,12.96
2019-05-19T11:40:38.039Z,12.53
2019-05-19T11:42:17.455Z,12.57
2019-05-19T11:43:53.104Z,12.53
2019-05-19T11:45:30.066Z,12.54
2019-05-19T11:47:07.972Z,12.34
2019-05-19T11:48:44.541Z,12.40
2019-05-19T11:50:20.493Z,12.42
2019-05-19T11:51:59.982Z,12.29
2019-05-19T11:53:39.964Z,12.29
2019-05-19T11:55:15.674Z,12.41
2019-05-19T11:56:51.346Z,12.46
2019-05-19T11:58:26.472Z,12.48
2019-05-19T12:00:03.512Z,12.47
2019-05-19T12:01:40.843Z,12.39
2019-05-19T12:03:19.137Z,12.40
2019-05-19T12:04:55.893Z,12.46
2019-05-19T12:06:39.556Z,12.54
2019-05-19T12:08:15.807Z,12.55
2019-05-19T12:09:51.419Z,12.55
2019-05-19T12:11:32.071Z,12.49
2019-05-19T12:13:08.011Z,12.46
2019-05-19T12:14:43.451Z,12.56
2019-05-19T12:16:25.249Z,12.74
2019-05-19T12:18:12.799Z,12.82
2019-05-19T12:19:54.850Z,12.88
2019-05-19T12:21:31.280Z,13.01
2019-05-19T12:23:13.765Z,13.06
2019-05-19T12:24:49.584Z,13.02
2019-05-19T12:26:24.778Z,13.06
2019-05-19T12:28:00.884Z,13.23
2019-05-19T12:29:45.678Z,13.40
2019-05-19T12:31:25.995Z,13.55
2019-05-19T12:33:05.906Z,13.52
2019-05-19T12:34:42.593Z,13.52
2019-05-19T12:36:20.884Z,13.43
2019-05-19T12:37:57.601Z,13.32
2019-05-19T12:39:40.559Z,13.29
2019-05-19T12:41:17.321Z,13.20
2019-05-19T12:43:23.607Z,13.15
2019-05-19T12:44:41.611Z,13.26
2019-05-19T12:46:21.041Z,13.30
2019-05-19T12:48:10.279Z,13.17
2019-05-19T12:50:00.252Z,13.22
2019-05-19T12:51:36.602Z,13.11
2019-05-19T12:53:17.305Z,13.02
2019-05-19T12:54:54.547Z,13.03
2019-05-19T12:56:39.808Z,13.07
2019-05-19T12:58:10.791Z,13.07
2019-05-19T12:59:47.315Z,13.00
2019-05-19T13:01:26.116Z,13.01
2019-05-19T13:03:07.816Z,12.85
2019-05-19T13:05:03.237Z,12.79
2019-05-19T13:06:24.662Z,12.85
2019-05-19T13:08:02.454Z,12.74
2019-05-19T13:09:41.171Z,12.72
2019-05-19T13:11:19.930Z,12.66
2019-05-19T13:12:58.129Z,12.71
2019-05-19T13:14:46.577Z,12.70
2019-05-19T13:16:38.817Z,12.80
2019-05-19T13:18:19.859Z,12.75
2019-05-19T13:19:58.609Z,12.72
2019-05-19T13:21:42.965Z,12.60
2019-05-19T13:23:25.325Z,12.67
2019-05-19T13:25:11.491Z,12.67
2019-05-19T13:27:00.642Z,12.60
2019-05-19T13:28:43.992Z,12.56
2019-05-19T13:30:43.434Z,12.54
2019-05-19T13:32:17.518Z,12.59
2019-05-19T13:33:58.744Z,12.52
2019-05-19T13:35:36.714Z,12.42
2019-05-19T13:37:15.059Z,12.39
2019-05-19T13:38:50.891Z,12.29
2019-05-19T13:40:29.774Z,12.31
2019-05-19T13:42:08.318Z,12.32
2019-05-19T13:43:46.537Z,12.40
2019-05-19T13:45:22.290Z,12.40
2019-05-19T13:46:58.965Z,12.47
2019-05-19T13:48:35.014Z,12.52
2019-05-19T13:50:11.765Z,12.63
2019-05-19T13:51:47.652Z,12.70
2019-05-19T13:53:23.047Z,12.92
2019-05-19T13:54:59.091Z,13.07
2019-05-19T13:56:36.314Z,13.13
2019-05-19T13:58:12.401Z,13.20
2019-05-19T13:59:47.685Z,13.35
2019-05-19T14:01:28.729Z,13.36
2019-05-19T14:03:01.876Z,13.65
2019-05-19T14:04:39.045Z,13.76
2019-05-19T14:06:14.133Z,13.62
2019-05-19T14:07:53.176Z,13.59
2019-05-19T14:09:28.880Z,13.74
2019-05-19T14:11:04.699Z,13.71
2019-05-19T14:12:42.435Z,13.76
2019-05-19T14:14:18.794Z,13.87
2019-05-19T14:15:56.761Z,13.50
2019-05-19T14:17:37.906Z,13.33
2019-05-19T14:19:15.275Z,13.26
2019-05-19T14:20:55.434Z,13.32
2019-05-19T14:22:36.124Z,13.24
2019-05-19T14:24:13.155Z,13.31
2019-05-19T14:25:49.321Z,13.38
2019-05-19T14:27:30.615Z,13.58
2019-05-19T14:29:02.338Z,13.66
2019-05-19T14:30:39.762Z,13.62
2019-05-19T14:32:16.599Z,13.72
2019-05-19T14:33:51.697Z,13.89
2019-05-19T14:35:32.681Z,13.91
2019-05-19T14:37:12.730Z,13.85
2019-05-19T14:39:05.290Z,14.03
2019-05-19T14:40:39.211Z,14.08
2019-05-19T14:42:39.342Z,14.18
2019-05-19T14:44:14.967Z,14.15
2019-05-19T14:45:51.576Z,14.31
2019-05-19T14:47:27.966Z,14.36
2019-05-19T14:49:06.563Z,14.45
2019-05-19T14:50:41.777Z,14.58
2019-05-19T14:52:17.599Z,14.61
2019-05-19T14:54:06.195Z,14.65
2019-05-19T14:55:43.429Z,14.80
2019-05-19T14:57:25.582Z,14.91
2019-05-19T14:59:05.916Z,14.89
2019-05-19T15:00:41.281Z,14.96
2019-05-19T15:02:22.048Z,14.91
2019-05-19T15:04:00.007Z,14.75
2019-05-19T15:05:36.567Z,14.69
2019-05-19T15:07:14.190Z,14.58
2019-05-19T15:08:50.829Z,14.59
2019-05-19T15:10:28.703Z,14.68
2019-05-19T15:12:07.045Z,14.84
2019-05-19T15:13:43.495Z,14.74
2019-05-19T15:15:22.438Z,14.69
2019-05-19T15:17:07.127Z,14.75
2019-05-19T15:18:50.514Z,14.72
2019-05-19T15:20:29.483Z,14.42
2019-05-19T15:22:04.948Z,14.37
2019-05-19T15:23:52.425Z,14.24
2019-05-19T15:25:32.314Z,14.27
2019-05-19T15:27:13.898Z,14.21
2019-05-19T15:28:55.152Z,14.07
2019-05-19T15:30:41.251Z,14.18
2019-05-19T15:32:18.585Z,14.12
2019-05-19T15:33:57.613Z,14.10
2019-05-19T15:35:40.226Z,14.02
2019-05-19T15:37:20.312Z,14.05
2019-05-19T15:39:00.782Z,14.13
2019-05-19T15:40:44.182Z,14.19
2019-05-19T15:42:22.776Z,14.20
2019-05-19T15:44:11.088Z,14.29
2019-05-19T15:45:47.116Z,14.19
2019-05-19T15:47:23.696Z,14.14
2019-05-19T15:49:00.047Z,14.17
2019-05-19T15:50:39.473Z,14.33
2019-05-19T15:52:17.183Z,14.24
2019-05-19T15:53:57.064Z,14.35
2019-05-19T15:55:36.576Z,14.50
2019-05-19T15:57:13.457Z,14.59
2019-05-19T15:59:19.634Z,14.73
2019-05-19T16:01:04.902Z,14.74
2019-05-19T16:03:08.530Z,14.84
2019-05-19T16:04:57.201Z,14.86
2019-05-19T16:06:41.051Z,14.94
2019-05-19T16:08:17.325Z,14.90
2019-05-19T16:09:55.840Z,15.08
2019-05-19T16:11:37.317Z,15.16
2019-05-19T16:13:16.640Z,15.23
2019-05-19T16:15:27.911Z,15.04
2019-05-19T16:16:36.218Z,15.18
2019-05-19T16:18:25.643Z,15.18
2019-05-19T16:20:02.923Z,14.90
2019-05-19T16:21:38.488Z,15.01
2019-05-19T16:23:15.301Z,14.91
2019-05-19T16:24:51.358Z,15.04
2019-05-19T16:26:28.477Z,15.05
2019-05-19T16:28:06.978Z,15.03
2019-05-19T16:29:43.978Z,15.22
2019-05-19T16:31:22.571Z,15.38
2019-05-19T16:32:59.509Z,15.61
2019-05-19T16:34:36.122Z,15.75
2019-05-19T16:36:12.369Z,15.86
2019-05-19T16:37:55.644Z,16.02
2019-05-19T16:39:34.205Z,16.21
2019-05-19T16:41:18.490Z,16.33
2019-05-19T16:42:55.241Z,16.49
2019-05-19T16:44:33.174Z,16.17
2019-05-19T16:46:08.920Z,16.35
2019-05-19T16:47:44.427Z,16.67
2019-05-19T16:49:24.811Z,17.07
2019-05-19T16:51:00.321Z,17.32
2019-05-19T16:52:37.219Z,17.42
2019-05-19T16:54:24.617Z,17.48
2019-05-19T16:56:10.377Z,17.60
2019-05-19T16:57:45.976Z,17.70
2019-05-19T16:59:23.202Z,17.88
2019-05-19T17:01:01.428Z,17.84
2019-05-19T17:02:42.266Z,18.06
2019-05-19T17:04:23.966Z,18.16
2019-05-19T17:06:00.293Z,18.02
2019-05-19T17:07:48.122Z,18.03
2019-05-19T17:09:26.333Z,18.07
2019-05-19T17:11:02.160Z,18.04
2019-05-19T17:12:46.687Z,18.10
2019-05-19T17:14:24.106Z,18.23
2019-05-19T17:18:18.158Z,18.36
2019-05-19T17:19:54.833Z,18.47
2019-05-19T17:21:36.972Z,18.38
2019-05-19T17:23:19.735Z,18.64
2019-05-19T17:25:03.206Z,18.69
2019-05-19T17:26:41.244Z,18.66
2019-05-19T17:28:17.537Z,18.43
2019-05-19T17:29:59.499Z,18.37
2019-05-19T17:31:42.297Z,18.49
2019-05-19T17:33:25.502Z,18.62
2019-05-19T17:35:04.918Z,18.74
2019-05-19T17:36:54.075Z,18.60
2019-05-19T17:38:30.455Z,18.54
2019-05-19T17:40:06.302Z,18.38
2019-05-19T17:41:45.075Z,18.19
2019-05-19T17:43:35.169Z,17.89
2019-05-19T17:45:26.746Z,17.72
2019-05-19T17:47:07.029Z,17.31
2019-05-19T17:48:49.527Z,17.22
2019-05-19T17:50:38.530Z,17.12
2019-05-19T17:52:14.835Z,16.97
2019-05-19T17:53:52.146Z,16.81
2019-05-19T17:55:29.183Z,16.59
2019-05-19T17:57:08.238Z,16.48
2019-05-19T17:58:47.365Z,16.36
2019-05-19T18:00:40.921Z,16.22
2019-05-19T18:02:18.804Z,16.08
2019-05-19T18:03:54.852Z,15.92
2019-05-19T18:05:36.128Z,15.80
2019-05-19T18:07:16.709Z,15.66
2019-05-19T18:08:58.889Z,15.47
2019-05-19T18:10:34.552Z,15.41
2019-05-19T18:12:31.913Z,15.28
2019-05-19T18:14:07.893Z,15.12
2019-05-19T18:15:59.654Z,14.95
2019-05-19T18:17:49.997Z,14.84
2019-05-19T18:19:47.353Z,14.68
2019-05-19T18:21:28.659Z,14.63
2019-05-19T18:23:04.530Z,14.53
2019-05-19T18:24:42.776Z,14.29
2019-05-19T18:26:23.833Z,14.19
2019-05-19T18:28:06.193Z,14.11
2019-05-19T18:29:47.022Z,14.05
2019-05-19T18:31:26.314Z,13.90
2019-05-19T18:33:07.640Z,13.83
2019-05-19T18:34:47.163Z,13.85
2019-05-19T18:36:22.783Z,13.83
2019-05-19T18:38:03.625Z,13.80
2019-05-19T18:39:41.787Z,13.73
2019-05-19T18:41:20.270Z,13.76
2019-05-19T18:42:58.984Z,13.74
2019-05-19T18:44:40.969Z,13.76
2019-05-19T18:46:22.153Z,13.73
2019-05-19T18:48:02.803Z,13.67
2019-05-19T18:49:41.099Z,13.66
2019-05-19T18:51:22.009Z,13.64
2019-05-19T18:53:03.899Z,13.54
2019-05-19T18:54:50.361Z,13.49
2019-05-19T18:56:26.727Z,13.46
2019-05-19T18:58:04.476Z,13.45
2019-05-19T18:59:48.094Z,13.60
2019-05-19T19:01:24.795Z,13.61
2019-05-19T19:03:02.371Z,13.49
2019-05-19T19:04:42.346Z,13.40
2019-05-19T19:06:21.545Z,13.37
2019-05-19T19:08:21.686Z,13.31
2019-05-19T19:10:05.515Z,13.28
2019-05-19T19:11:56.381Z,13.19
2019-05-19T19:13:47.275Z,13.18
2019-05-19T19:15:22.907Z,13.19
2019-05-19T19:17:03.926Z,13.14
2019-05-19T19:18:43.438Z,13.03
2019-05-19T19:20:20.418Z,12.96
2019-05-19T19:21:58.802Z,12.88
2019-05-19T19:23:54.980Z,12.86
2019-05-19T19:25:34.075Z,12.95
2019-05-19T19:27:16.900Z,12.87
2019-05-19T19:29:05.276Z,12.83
2019-05-19T19:30:51.312Z,12.71
2019-05-19T19:32:28.384Z,12.60
2019-05-19T19:34:06.271Z,12.55
2019-05-19T19:35:45.250Z,12.54
2019-05-19T19:37:30.738Z,12.51
2019-05-19T19:39:07.516Z,12.46
2019-05-19T19:40:47.565Z,12.33
2019-05-19T19:42:24.473Z,12.18
2019-05-19T19:44:02.896Z,12.10
2019-05-19T19:45:47.040Z,12.04
2019-05-19T19:47:25.809Z,11.97
2019-05-19T19:49:06.052Z,12.11
2019-05-19T19:50:43.493Z,12.08
2019-05-19T19:52:21.444Z,12.08
2019-05-19T19:54:03.701Z,12.05
2019-05-19T19:55:47.258Z,11.96
2019-05-19T19:57:27.936Z,11.84
2019-05-19T19:59:07.012Z,11.84
2019-05-19T20:00:46.885Z,11.78
2019-05-19T20:02:23.379Z,11.76
2019-05-19T20:04:06.332Z,11.59
2019-05-19T20:05:46.936Z,11.48
2019-05-19T20:07:26.002Z,11.41
2019-05-19T20:09:06.446Z,11.36
2019-05-19T20:10:42.327Z,11.27
2019-05-19T20:12:19.748Z,11.19
2019-05-19T20:14:01.008Z,11.19
2019-05-19T20:15:41.551Z,11.20
2019-05-19T20:17:18.753Z,11.21
2019-05-19T20:18:59.202Z,11.14
2019-05-19T20:20:42.543Z,11.08
2019-05-19T20:22:23.173Z,11.13
2019-05-19T20:24:08.594Z,11.08
2019-05-19T20:25:47.350Z,11.10
2019-05-19T20:27:29.879Z,11.12
2019-05-19T20:29:08.317Z,11.15
2019-05-19T20:30:47.623Z,11.12
2019-05-19T20:32:31.227Z,11.07
2019-05-19T20:34:18.461Z,11.05
2019-05-19T20:35:58.722Z,10.98
2019-05-19T20:37:40.237Z,10.95
2019-05-19T20:39:20.652Z,10.94
2019-05-19T20:41:09.871Z,10.94
2019-05-19T20:42:43.605Z,10.92
2019-05-19T20:44:27.612Z,10.90
2019-05-19T20:46:08.103Z,10.83
2019-05-19T20:47:49.329Z,10.79
2019-05-19T20:49:28.301Z,10.80
2019-05-19T20:51:08.165Z,10.85
2019-05-19T20:52:44.185Z,10.88
2019-05-19T20:54:24.243Z,10.84
2019-05-19T20:56:02.327Z,10.94
2019-05-19T20:57:45.581Z,11.07
2019-05-19T20:59:32.010Z,11.06
2019-05-19T21:01:14.693Z,11.16
2019-05-19T21:02:58.150Z,11.17
2019-05-19T21:04:41.094Z,11.22
2019-05-19T21:06:17.303Z,11.19
2019-05-19T21:07:55.247Z,11.22
2019-05-19T21:09:35.020Z,11.26
2019-05-19T21:11:18.040Z,11.25
2019-05-19T21:12:59.384Z,11.28
2019-05-19T21:14:40.433Z,11.27
2019-05-19T21:16:19.625Z,11.29
2019-05-19T21:18:00.773Z,11.33
2019-05-19T21:19:43.819Z,11.30
2019-05-19T21:21:22.287Z,11.30
2019-05-19T21:23:00.507Z,11.25
2019-05-19T21:24:43.564Z,11.18
2019-05-19T21:26:21.762Z,11.17
2019-05-19T21:30:14.701Z,11.13
2019-05-19T21:31:51.884Z,11.08
2019-05-19T21:33:28.452Z,11.12